createdAt,value
2018-02-24T00:01:41.360Z,95349.57
2018-02-24T00:04:10.716Z,95350.63
2018-02-24T00:06:40.060Z,95347.42
2018-02-24T00:09:09.621Z,95342.60
2018-02-24T00:11:38.956Z,95336.59
2018-02-24T00:14:08.305Z,95348.79
2018-02-24T00:16:37.644Z,95351.83
2018-02-24T00:19:07.001Z,95348.50
2018-02-24T00:21:36.340Z,95344.00
2018-02-24T00:24:05.704Z,95347.38
2018-02-24T00:26:35.037Z,95349.84
2018-02-24T00:29:04.387Z,95349.31
2018-02-24T00:31:33.724Z,95343.63
2018-02-24T00:34:03.081Z,95337.88
2018-02-24T00:36:32.413Z,95338.73
2018-02-24T00:39:01.771Z,95329.26
2018-02-24T00:41:31.124Z,95330.78
2018-02-24T00:44:00.280Z,95347.91
2018-02-24T00:46:29.671Z,95341.28
2018-02-24T00:48:58.816Z,95345.02
2018-02-24T00:51:27.969Z,95343.34
2018-02-24T00:53:57.341Z,95351.95
2018-02-24T00:56:26.492Z,95349.44
2018-02-24T00:58:55.848Z,95340.17
2018-02-24T01:01:24.989Z,95346.80
2018-02-24T01:03:54.328Z,95346.32
2018-02-24T01:06:23.689Z,95346.70
2018-02-24T01:08:53.033Z,95349.18
2018-02-24T01:11:22.388Z,95346.32
2018-02-24T01:13:51.721Z,95336.72
2018-02-24T01:16:21.085Z,95341.34
2018-02-24T01:18:50.421Z,95329.31
2018-02-24T01:21:19.774Z,95334.03
2018-02-24T01:23:49.108Z,95333.11
2018-02-24T01:26:18.580Z,95327.84
2018-02-24T01:28:47.904Z,95326.08
2018-02-24T01:31:17.257Z,95327.02
2018-02-24T01:33:46.601Z,95327.13
2018-02-24T01:36:15.948Z,95323.40
2018-02-24T01:38:45.304Z,95326.32
2018-02-24T01:41:14.687Z,95323.86
2018-02-24T01:43:43.680Z,95325.69
2018-02-24T01:46:13.030Z,95325.91
2018-02-24T01:48:42.369Z,95333.58
2018-02-24T01:51:11.742Z,95333.58
2018-02-24T01:53:41.069Z,95331.75
2018-02-24T01:56:10.443Z,95334.33
2018-02-24T01:58:39.965Z,95331.91
2018-02-24T02:01:09.320Z,95341.16
2018-02-24T02:03:38.652Z,95338.61
2018-02-24T02:06:07.648Z,95339.59
2018-02-24T02:08:36.992Z,95324.24
2018-02-24T02:11:06.345Z,95335.40
2018-02-24T02:13:35.690Z,95332.11
2018-02-24T02:16:05.047Z,95327.59
2018-02-24T02:18:34.376Z,95331.47
2018-02-24T02:21:03.522Z,95324.99
2018-02-24T02:23:33.033Z,95331.47
2018-02-24T02:26:02.393Z,95327.85
2018-02-24T02:28:31.724Z,95328.25
2018-02-24T02:31:01.076Z,95335.63
2018-02-24T02:33:30.417Z,95338.98
2018-02-24T02:35:59.768Z,95332.96
2018-02-24T02:38:29.113Z,95330.02
2018-02-24T02:40:58.474Z,95333.39
2018-02-24T02:43:27.814Z,95336.02
2018-02-24T02:45:57.172Z,95334.05
2018-02-24T02:48:26.598Z,95336.02
2018-02-24T02:50:55.941Z,95344.66
2018-02-24T02:53:25.273Z,95338.66
2018-02-24T02:55:54.645Z,95331.91
2018-02-24T02:58:24.020Z,95340.66
2018-02-24T03:00:53.369Z,95331.86
2018-02-24T03:03:22.705Z,95333.31
2018-02-24T03:05:52.069Z,95336.18
2018-02-24T03:08:21.413Z,95341.28
2018-02-24T03:10:50.762Z,95341.80
2018-02-24T03:13:20.104Z,95335.56
2018-02-24T03:15:49.532Z,95339.36
2018-02-24T03:18:18.877Z,95345.09
2018-02-24T03:20:48.233Z,95351.41
2018-02-24T03:23:17.728Z,95348.92
2018-02-24T03:25:47.088Z,95348.54
2018-02-24T03:28:16.436Z,95349.27
2018-02-24T03:30:45.778Z,95350.81
2018-02-24T03:33:15.150Z,95341.14
2018-02-24T03:35:44.488Z,95347.05
2018-02-24T03:38:13.850Z,95356.02
2018-02-24T03:40:43.194Z,95353.56
2018-02-24T03:43:12.356Z,95361.90
2018-02-24T03:45:41.508Z,95351.99
2018-02-24T03:48:10.673Z,95355.50
2018-02-24T03:50:39.817Z,95358.48
2018-02-24T03:53:08.985Z,95365.55
2018-02-24T03:55:38.132Z,95370.11
2018-02-24T03:58:07.489Z,95370.39
2018-02-24T04:00:36.825Z,95375.77
2018-02-24T04:03:06.185Z,95375.50
2018-02-24T04:05:35.332Z,95376.06
2018-02-24T04:08:04.689Z,95376.22
2018-02-24T04:10:34.025Z,95371.35
2018-02-24T04:13:03.415Z,95378.65
2018-02-24T04:15:32.740Z,95386.20
2018-02-24T04:18:02.100Z,95381.71
2018-02-24T04:20:31.437Z,95382.83
2018-02-24T04:23:00.797Z,95376.27
2018-02-24T04:25:30.128Z,95372.16
2018-02-24T04:27:59.484Z,95376.34
2018-02-24T04:30:28.824Z,95382.95
2018-02-24T04:32:58.316Z,95384.88
2018-02-24T04:35:27.661Z,95384.22
2018-02-24T04:37:57.012Z,95391.64
2018-02-24T04:40:26.348Z,95376.87
2018-02-24T04:42:55.699Z,95385.61
2018-02-24T04:45:25.041Z,95385.15
2018-02-24T04:47:54.397Z,95381.07
2018-02-24T04:50:23.738Z,95391.81
2018-02-24T04:52:53.089Z,95389.66
2018-02-24T04:55:22.441Z,95387.34
2018-02-24T04:57:51.793Z,95385.70
2018-02-24T05:00:21.132Z,95387.73
2018-02-24T05:02:50.492Z,95392.72
2018-02-24T05:05:19.833Z,95387.83
2018-02-24T05:07:49.189Z,95389.42
2018-02-24T05:10:18.530Z,95394.38
2018-02-24T05:12:47.881Z,95387.56
2018-02-24T05:15:17.225Z,95395.70
2018-02-24T05:17:46.585Z,95397.84
2018-02-24T05:20:15.930Z,95404.46
2018-02-24T05:22:45.284Z,95399.13
2018-02-24T05:25:14.612Z,95400.76
2018-02-24T05:27:43.972Z,95404.98
2018-02-24T05:30:13.313Z,95409.85
2018-02-24T05:32:42.668Z,95414.00
2018-02-24T05:35:12.005Z,95414.17
2018-02-24T05:37:41.365Z,95423.17
2018-02-24T05:40:10.700Z,95431.80
2018-02-24T05:42:40.093Z,95428.51
2018-02-24T05:45:09.416Z,95427.36
2018-02-24T05:47:38.772Z,95425.47
2018-02-24T05:50:08.204Z,95425.48
2018-02-24T05:52:37.567Z,95429.21
2018-02-24T05:55:06.900Z,95437.08
2018-02-24T05:57:36.295Z,95437.53
2018-02-24T06:00:05.809Z,95438.81
2018-02-24T06:02:35.151Z,95430.97
2018-02-24T06:05:04.138Z,95436.77
2018-02-24T06:07:33.499Z,95428.95
2018-02-24T06:10:03.041Z,95422.39
2018-02-24T06:12:32.393Z,95434.50
2018-02-24T06:15:01.745Z,95431.33
2018-02-24T06:17:31.116Z,95448.82
2018-02-24T06:20:00.460Z,95449.27
2018-02-24T06:22:29.800Z,95446.41
2018-02-24T06:24:59.152Z,95438.67
2018-02-24T06:27:28.304Z,95458.78
2018-02-24T06:29:57.664Z,95463.00
2018-02-24T06:32:26.808Z,95463.27
2018-02-24T06:34:55.972Z,95459.89
2018-02-24T06:37:25.304Z,95463.30
2018-02-24T06:39:54.477Z,95465.70
2018-02-24T06:42:23.633Z,95466.86
2018-02-24T06:44:52.980Z,95468.05
2018-02-24T06:47:22.131Z,95470.55
2018-02-24T06:49:51.529Z,95472.64
2018-02-24T06:52:21.031Z,95480.24
2018-02-24T06:54:50.381Z,95481.73
2018-02-24T06:57:19.714Z,95486.78
2018-02-24T06:59:49.066Z,95493.84
2018-02-24T07:02:18.404Z,95488.95
2018-02-24T07:04:47.769Z,95490.73
2018-02-24T07:07:17.332Z,95495.80
2018-02-24T07:09:46.689Z,95499.45
2018-02-24T07:12:16.026Z,95499.36
2018-02-24T07:14:45.385Z,95500.73
2018-02-24T07:17:14.721Z,95504.44
2018-02-24T07:19:44.073Z,95505.72
2018-02-24T07:22:13.500Z,95509.31
2018-02-24T07:24:42.864Z,95505.23
2018-02-24T07:27:12.196Z,95517.73
2018-02-24T07:29:41.552Z,95514.75
2018-02-24T07:32:10.890Z,95508.41
2018-02-24T07:34:40.237Z,95519.23
2018-02-24T07:37:09.572Z,95516.89
2018-02-24T07:39:38.932Z,95521.34
2018-02-24T07:42:08.273Z,95516.84
2018-02-24T07:44:37.609Z,95527.66
2018-02-24T07:47:06.964Z,95527.84
2018-02-24T07:49:36.306Z,95527.94
2018-02-24T07:52:05.668Z,95533.47
2018-02-24T07:54:35.001Z,95525.54
2018-02-24T07:57:04.372Z,95528.80
2018-02-24T07:59:33.902Z,95523.72
2018-02-24T08:02:03.253Z,95523.75
2018-02-24T08:04:32.593Z,95526.87
2018-02-24T08:07:01.944Z,95517.31
2018-02-24T08:09:31.096Z,95533.25
2018-02-24T08:12:00.452Z,95530.55
2018-02-24T08:14:29.848Z,95532.27
2018-02-24T08:16:59.005Z,95533.69
2018-02-24T08:19:28.341Z,95541.09
2018-02-24T08:21:57.696Z,95532.42
2018-02-24T08:24:27.049Z,95540.05
2018-02-24T08:26:56.396Z,95543.03
2018-02-24T08:29:25.738Z,95539.34
2018-02-24T08:31:55.089Z,95544.15
2018-02-24T08:34:24.424Z,95544.58
2018-02-24T08:36:53.878Z,95543.73
2018-02-24T08:39:23.220Z,95549.98
2018-02-24T08:41:52.760Z,95551.61
2018-02-24T08:44:22.189Z,95550.50
2018-02-24T08:46:51.533Z,95555.39
2018-02-24T08:49:20.911Z,95555.63
2018-02-24T08:51:50.265Z,95556.69
2018-02-24T08:54:19.608Z,95557.04
2018-02-24T08:56:48.993Z,95556.86
2018-02-24T08:59:18.364Z,95557.98
2018-02-24T09:01:47.786Z,95557.61
2018-02-24T09:04:17.117Z,95559.76
2018-02-24T09:06:46.494Z,95557.75
2018-02-24T09:09:16.001Z,95559.27
2018-02-24T09:11:45.354Z,95558.46
2018-02-24T09:14:14.713Z,95554.14
2018-02-24T09:16:44.073Z,95565.13
2018-02-24T09:19:13.524Z,95563.11
2018-02-24T09:21:42.869Z,95573.30
2018-02-24T09:24:12.200Z,95561.53
2018-02-24T09:26:41.548Z,95560.00
2018-02-24T09:29:10.901Z,95564.89
2018-02-24T09:31:40.306Z,95569.04
2018-02-24T09:34:09.644Z,95563.99
2018-02-24T09:36:38.972Z,95561.78
2018-02-24T09:39:08.316Z,95566.88
2018-02-24T09:41:37.653Z,95570.25
2018-02-24T09:44:07.013Z,95564.41
2018-02-24T09:46:36.348Z,95552.13
2018-02-24T09:49:05.692Z,95563.42
2018-02-24T09:51:35.028Z,95563.52
2018-02-24T09:54:04.045Z,95571.05
2018-02-24T09:56:33.373Z,95560.19
2018-02-24T09:59:02.733Z,95562.77
2018-02-24T10:01:32.086Z,95569.83
2018-02-24T10:04:01.426Z,95560.44
2018-02-24T10:06:30.751Z,95564.64
2018-02-24T10:09:00.109Z,95564.56
2018-02-24T10:11:29.440Z,95567.35
2018-02-24T10:13:58.800Z,95563.22
2018-02-24T10:16:28.128Z,95567.97
2018-02-24T10:18:57.473Z,95563.16
2018-02-24T10:21:27.018Z,95565.75
2018-02-24T10:23:56.365Z,95570.90
2018-02-24T10:26:25.701Z,95548.68
2018-02-24T10:28:55.156Z,95564.94
2018-02-24T10:31:24.472Z,95556.01
2018-02-24T10:33:53.826Z,95567.39
2018-02-24T10:36:22.972Z,95557.87
2018-02-24T10:38:52.312Z,95561.42
2018-02-24T10:41:21.640Z,95559.84
2018-02-24T10:43:50.993Z,95560.39
2018-02-24T10:46:20.321Z,95549.51
2018-02-24T10:48:48.993Z,95561.23
2018-02-24T10:51:18.329Z,95552.25
2018-02-24T10:53:47.712Z,95551.08
2018-02-24T10:56:17.048Z,95554.88
2018-02-24T10:58:46.392Z,95560.87
2018-02-24T11:01:15.725Z,95554.88
2018-02-24T11:03:45.056Z,95540.36
2018-02-24T11:06:14.405Z,95540.19
2018-02-24T11:08:43.737Z,95536.58
2018-02-24T11:11:13.085Z,95533.87
2018-02-24T11:13:42.413Z,95538.05
2018-02-24T11:16:11.761Z,95531.27
2018-02-24T11:18:41.088Z,95532.14
2018-02-24T11:21:10.441Z,95535.23
2018-02-24T11:23:39.772Z,95522.44
2018-02-24T11:26:09.144Z,95526.34
2018-02-24T11:28:38.476Z,95528.50
2018-02-24T11:31:07.828Z,95529.89
2018-02-24T11:33:37.172Z,95519.89
2018-02-24T11:36:06.508Z,95524.85
2018-02-24T11:38:35.869Z,95523.64
2018-02-24T11:41:05.197Z,95520.22
2018-02-24T11:43:34.910Z,95519.16
2018-02-24T11:46:04.237Z,95519.00
2018-02-24T11:48:34.042Z,95515.33
2018-02-24T11:51:03.825Z,95511.80
2018-02-24T11:53:32.973Z,95505.62
2018-02-24T11:56:02.301Z,95506.78
2018-02-24T11:58:31.656Z,95511.56
2018-02-24T12:01:00.993Z,95510.00
2018-02-24T12:03:30.396Z,95502.77
2018-02-24T12:05:59.904Z,95501.14
2018-02-24T12:08:29.251Z,95504.30
2018-02-24T12:10:58.581Z,95507.40
2018-02-24T12:13:27.928Z,95508.33
2018-02-24T12:15:57.260Z,95501.36
2018-02-24T12:18:26.612Z,95494.23
2018-02-24T12:20:55.940Z,95495.28
2018-02-24T12:23:26.472Z,95499.57
2018-02-24T12:25:55.800Z,95495.97
2018-02-24T12:28:25.144Z,95494.66
2018-02-24T12:30:54.477Z,95495.49
2018-02-24T12:33:23.827Z,95500.63
2018-02-24T12:35:53.156Z,95494.39
2018-02-24T12:38:22.320Z,95493.58
2018-02-24T12:40:51.652Z,95488.46
2018-02-24T12:43:20.992Z,95490.06
2018-02-24T12:45:49.993Z,95487.72
2018-02-24T12:48:19.340Z,95486.17
2018-02-24T12:50:48.672Z,95480.05
2018-02-24T12:53:18.257Z,95486.30
2018-02-24T12:55:47.594Z,95495.02
2018-02-24T12:58:16.932Z,95479.92
2018-02-24T13:00:46.808Z,95488.44
2018-02-24T13:03:16.586Z,95470.14
2018-02-24T13:05:45.913Z,95481.64
2018-02-24T13:08:15.277Z,95475.16
2018-02-24T13:10:44.601Z,95488.88
2018-02-24T13:13:13.932Z,95488.34
2018-02-24T13:15:43.856Z,95496.33
2018-02-24T13:18:13.212Z,95490.30
2018-02-24T13:20:42.749Z,95489.66
2018-02-24T13:23:12.121Z,95491.22
2018-02-24T13:25:41.457Z,95491.58
2018-02-24T13:28:10.805Z,95487.05
2018-02-24T13:30:39.960Z,95484.66
2018-02-24T13:33:09.105Z,95476.61
2018-02-24T13:35:38.267Z,95486.02
2018-02-24T13:38:07.498Z,95485.98
2018-02-24T13:40:36.652Z,95486.59
2018-02-24T13:43:05.996Z,95484.50
2018-02-24T13:45:35.344Z,95491.46
2018-02-24T13:48:04.509Z,95488.69
2018-02-24T13:50:33.852Z,95494.86
2018-02-24T13:53:03.213Z,95484.09
2018-02-24T13:55:32.556Z,95497.59
2018-02-24T13:58:01.893Z,95507.78
2018-02-24T14:00:31.241Z,95505.05
2018-02-24T14:03:00.672Z,95501.63
2018-02-24T14:05:30.185Z,95508.03
2018-02-24T14:07:59.526Z,95502.40
2018-02-24T14:10:28.984Z,95511.23
2018-02-24T14:12:58.309Z,95501.15
2018-02-24T14:15:27.760Z,95505.30
2018-02-24T14:17:57.137Z,95506.11
2018-02-24T14:20:26.476Z,95500.14
2018-02-24T14:22:55.814Z,95499.69
2018-02-24T14:25:25.243Z,95500.82
2018-02-24T14:27:54.564Z,95499.83
2018-02-24T14:30:24.153Z,95500.86
2018-02-24T14:32:53.476Z,95510.72
2018-02-24T14:35:22.838Z,95513.04
2018-02-24T14:37:52.177Z,95499.84
2018-02-24T14:40:21.524Z,95510.63
2018-02-24T14:42:50.864Z,95496.20
2018-02-24T14:45:20.232Z,95510.88
2018-02-24T14:47:49.569Z,95513.27
2018-02-24T14:50:18.927Z,95520.75
2018-02-24T14:52:48.264Z,95516.28
2018-02-24T14:55:17.621Z,95521.09
2018-02-24T14:57:46.953Z,95517.34
2018-02-24T15:00:16.313Z,95507.75
2018-02-24T15:02:45.661Z,95527.80
2018-02-24T15:05:15.017Z,95528.16
2018-02-24T15:07:44.164Z,95543.24
2018-02-24T15:10:13.517Z,95524.74
2018-02-24T15:12:42.865Z,95534.50
2018-02-24T15:15:12.276Z,95539.38
2018-02-24T15:17:41.413Z,95538.23
2018-02-24T15:20:10.576Z,95544.24
2018-02-24T15:22:39.921Z,95545.42
2018-02-24T15:25:09.084Z,95546.12
2018-02-24T15:27:38.236Z,95538.20
2018-02-24T15:30:07.593Z,95547.16
2018-02-24T15:32:36.741Z,95551.77
2018-02-24T15:35:06.097Z,95546.46
2018-02-24T15:37:35.466Z,95555.13
2018-02-24T15:40:04.155Z,95552.75
2018-02-24T15:42:33.481Z,95553.16
2018-02-24T15:45:02.926Z,95546.66
2018-02-24T15:47:32.280Z,95545.21
2018-02-24T15:50:01.459Z,95544.84
2018-02-24T15:52:30.600Z,95555.53
2018-02-24T15:54:59.957Z,95564.61
2018-02-24T15:57:29.300Z,95559.82
2018-02-24T15:59:58.668Z,95566.63
2018-02-24T16:02:28.060Z,95572.19
2018-02-24T16:04:57.404Z,95566.05
2018-02-24T16:07:26.764Z,95566.16
2018-02-24T16:09:56.121Z,95565.58
2018-02-24T16:12:25.285Z,95566.93
2018-02-24T16:14:54.641Z,95564.70
2018-02-24T16:17:23.985Z,95563.69
2018-02-24T16:19:53.330Z,95565.37
2018-02-24T16:22:22.481Z,95567.38
2018-02-24T16:24:51.653Z,95557.66
2018-02-24T16:27:20.988Z,95569.44
2018-02-24T16:29:50.337Z,95571.67
2018-02-24T16:32:19.672Z,95573.05
2018-02-24T16:34:49.031Z,95576.88
2018-02-24T16:37:18.364Z,95586.17
2018-02-24T16:39:47.721Z,95581.34
2018-02-24T16:42:17.064Z,95579.49
2018-02-24T16:44:46.436Z,95579.06
2018-02-24T16:47:15.584Z,95585.80
2018-02-24T16:49:44.929Z,95585.28
2018-02-24T16:52:14.274Z,95589.97
2018-02-24T16:54:43.837Z,95599.50
2018-02-24T16:57:13.168Z,95597.06
2018-02-24T16:59:42.527Z,95606.64
2018-02-24T17:02:11.856Z,95607.70
2018-02-24T17:04:41.213Z,95610.68
2018-02-24T17:07:10.549Z,95611.17
2018-02-24T17:09:39.934Z,95610.41
2018-02-24T17:12:09.297Z,95610.03
2018-02-24T17:14:38.829Z,95614.66
2018-02-24T17:17:08.163Z,95617.73
2018-02-24T17:19:37.556Z,95619.08
2018-02-24T17:22:06.902Z,95620.41
2018-02-24T17:24:36.262Z,95628.20
2018-02-24T17:27:05.597Z,95631.14
2018-02-24T17:29:34.949Z,95632.11
2018-02-24T17:32:04.285Z,95639.61
2018-02-24T17:34:33.637Z,95636.05
2018-02-24T17:37:02.789Z,95638.42
2018-02-24T17:39:32.387Z,95643.41
2018-02-24T17:42:01.532Z,95644.71
2018-02-24T17:44:30.885Z,95645.20
2018-02-24T17:47:00.257Z,95647.88
2018-02-24T17:49:29.827Z,95648.15
2018-02-24T17:51:59.157Z,95649.82
2018-02-24T17:54:28.533Z,95653.62
2018-02-24T17:56:57.852Z,95654.17
2018-02-24T17:59:27.209Z,95653.50
2018-02-24T18:01:56.549Z,95654.41
2018-02-24T18:04:25.837Z,95657.53
2018-02-24T18:06:55.165Z,95663.74
2018-02-24T18:09:24.543Z,95665.48
2018-02-24T18:11:53.876Z,95667.19
2018-02-24T18:14:23.226Z,95666.36
2018-02-24T18:16:52.560Z,95669.69
2018-02-24T18:19:21.913Z,95668.94
2018-02-24T18:21:51.270Z,95666.55
2018-02-24T18:24:20.621Z,95667.84
2018-02-24T18:26:49.966Z,95671.27
2018-02-24T18:29:19.366Z,95680.44
2018-02-24T18:31:48.693Z,95679.73
2018-02-24T18:34:18.044Z,95687.27
2018-02-24T18:36:47.404Z,95676.16
2018-02-24T18:39:16.744Z,95679.17
2018-02-24T18:41:46.134Z,95677.95
2018-02-24T18:44:15.661Z,95688.47
2018-02-24T18:46:46.693Z,95688.02
2018-02-24T18:49:16.114Z,95693.52
2018-02-24T18:51:45.468Z,95694.36
2018-02-24T18:54:14.801Z,95695.23
2018-02-24T18:56:44.161Z,95695.67
2018-02-24T18:59:13.518Z,95702.81
2018-02-24T19:01:42.860Z,95699.55
2018-02-24T19:04:12.197Z,95701.98
2018-02-24T19:06:41.551Z,95695.84
2018-02-24T19:09:10.881Z,95700.44
2018-02-24T19:11:40.244Z,95704.20
2018-02-24T19:14:09.405Z,95711.19
2018-02-24T19:16:38.753Z,95708.33
2018-02-24T19:19:08.126Z,95709.56
2018-02-24T19:21:37.468Z,95703.41
2018-02-24T19:24:06.816Z,95714.60
2018-02-24T19:26:35.985Z,95710.87
2018-02-24T19:29:05.125Z,95713.45
2018-02-24T19:31:34.526Z,95710.54
2018-02-24T19:34:03.853Z,95711.02
2018-02-24T19:36:33.209Z,95710.66
2018-02-24T19:39:02.552Z,95718.13
2018-02-24T19:41:31.912Z,95716.08
2018-02-24T19:44:01.248Z,95710.81
2018-02-24T19:46:30.610Z,95703.78
2018-02-24T19:48:59.976Z,95707.53
2018-02-24T19:51:29.337Z,95711.31
2018-02-24T19:53:58.677Z,95712.16
2018-02-24T19:56:28.037Z,95712.66
2018-02-24T19:58:57.369Z,95715.11
2018-02-24T20:01:26.725Z,95716.34
2018-02-24T20:03:56.065Z,95725.05
2018-02-24T20:06:25.413Z,95720.58
2018-02-24T20:08:54.755Z,95723.50
2018-02-24T20:11:24.121Z,95710.77
2018-02-24T20:13:53.461Z,95714.11
2018-02-24T20:16:22.855Z,95713.70
2018-02-24T20:18:52.181Z,95718.26
2018-02-24T20:21:21.537Z,95716.69
2018-02-24T20:23:50.874Z,95718.73
2018-02-24T20:26:20.261Z,95720.86
2018-02-24T20:28:49.604Z,95729.95
2018-02-24T20:31:19.085Z,95724.62
2018-02-24T20:33:48.425Z,95723.44
2018-02-24T20:36:17.804Z,95727.17
2018-02-24T20:38:47.146Z,95729.23
2018-02-24T20:41:16.172Z,95724.31
2018-02-24T20:43:45.509Z,95721.48
2018-02-24T20:46:14.672Z,95727.31
2018-02-24T20:48:43.830Z,95721.58
2018-02-24T20:51:13.185Z,95725.32
2018-02-24T20:53:42.541Z,95730.70
2018-02-24T20:56:11.901Z,95729.16
2018-02-24T20:58:41.234Z,95741.48
2018-02-24T21:01:10.409Z,95740.27
2018-02-24T21:03:39.780Z,95733.75
2018-02-24T21:06:09.197Z,95739.09
2018-02-24T21:08:38.538Z,95738.31
2018-02-24T21:11:08.225Z,95741.19
2018-02-24T21:13:37.605Z,95741.65
2018-02-24T21:16:06.975Z,95744.50
2018-02-24T21:18:36.304Z,95743.28
2018-02-24T21:21:05.696Z,95756.92
2018-02-24T21:23:35.218Z,95762.26
2018-02-24T21:26:04.585Z,95762.27
2018-02-24T21:28:33.925Z,95751.08
2018-02-24T21:31:03.284Z,95766.33
2018-02-24T21:33:32.696Z,95767.95
2018-02-24T21:36:01.853Z,95767.91
2018-02-24T21:38:31.002Z,95769.92
2018-02-24T21:41:00.391Z,95771.16
2018-02-24T21:43:29.732Z,95769.93
2018-02-24T21:45:59.085Z,95768.28
2018-02-24T21:48:28.425Z,95766.69
2018-02-24T21:50:57.785Z,95777.52
2018-02-24T21:53:27.141Z,95773.84
2018-02-24T21:55:56.502Z,95774.30
2018-02-24T21:58:26.053Z,95779.70
2018-02-24T22:00:55.385Z,95780.16
2018-02-24T22:03:24.767Z,95782.70
2018-02-24T22:05:54.108Z,95781.09
2018-02-24T22:08:23.477Z,95779.09
2018-02-24T22:10:52.812Z,95775.41
2018-02-24T22:13:22.173Z,95777.55
2018-02-24T22:15:51.512Z,95770.19
2018-02-24T22:18:20.880Z,95778.08
2018-02-24T22:20:50.226Z,95790.94
2018-02-24T22:23:19.577Z,95797.55
2018-02-24T22:25:48.730Z,95779.45
2018-02-24T22:28:18.082Z,95800.87
2018-02-24T22:30:47.246Z,95792.69
2018-02-24T22:33:17.088Z,95802.20
2018-02-24T22:35:46.428Z,95797.67
2018-02-24T22:38:15.881Z,95790.31
2018-02-24T22:40:45.221Z,95793.23
2018-02-24T22:43:14.739Z,95787.09
2018-02-24T22:45:44.077Z,95786.67
2018-02-24T22:48:18.833Z,95785.86
2018-02-24T22:50:48.196Z,95803.19
2018-02-24T22:53:17.550Z,95793.31
2018-02-24T22:55:46.889Z,95793.75
2018-02-24T22:58:16.265Z,95792.11
2018-02-24T23:00:45.604Z,95794.58
2018-02-24T23:03:16.166Z,95797.45
2018-02-24T23:05:45.493Z,95793.35
2018-02-24T23:08:14.869Z,95792.54
2018-02-24T23:10:43.885Z,95791.30
2018-02-24T23:13:13.252Z,95790.52
2018-02-24T23:15:42.595Z,95797.91
2018-02-24T23:18:11.949Z,95797.92
2018-02-24T23:20:41.284Z,95784.74
2018-02-24T23:23:10.636Z,95792.97
2018-02-24T23:25:40.305Z,95786.82
2018-02-24T23:28:09.686Z,95792.16
2018-02-24T23:30:39.072Z,95789.27
2018-02-24T23:33:08.418Z,95801.22
2018-02-24T23:35:37.782Z,95803.26
2018-02-24T23:38:07.228Z,95798.74
2018-02-24T23:40:36.381Z,95799.97
2018-02-24T23:43:05.732Z,95799.61
2018-02-24T23:45:35.077Z,95803.30
2018-02-24T23:48:04.245Z,95802.45
2018-02-24T23:50:33.032Z,95801.22
2018-02-24T23:53:02.289Z,95809.44
2018-02-24T23:55:31.457Z,95805.33
2018-02-24T23:58:00.796Z,95806.97
